sensor_id;sensor_type;location;lat;lon;timestamp;P1;durP1;ratioP1;P2;durP2;ratioP2
56297;SDS011;42208;6.376;-10.782;2022-07-12T00:00:00;23.92;;;9.25;;
56297;SDS011;42208;6.376;-10.782;2022-07-12T00:02:30;31.42;;;10.07;;
56297;SDS011;42208;6.376;-10.782;2022-07-12T00:04:59;28.42;;;8.63;;
56297;SDS011;42208;6.376;-10.782;2022-07-12T00:07:27;23.45;;;8.38;;
56297;SDS011;42208;6.376;-10.782;2022-07-12T00:09:55;22.00;;;8.73;;
56297;SDS011;42208;6.376;-10.782;2022-07-12T00:12:23;49.63;;;9.52;;
56297;SDS011;42208;6.376;-10.782;2022-07-12T00:14:52;26.52;;;8.48;;
56297;SDS011;42208;6.376;-10.782;2022-07-12T00:17:20;21.23;;;8.45;;
56297;SDS011;42208;6.376;-10.782;2022-07-12T00:19:48;26.38;;;8.52;;
56297;SDS011;42208;6.376;-10.782;2022-07-12T00:22:17;24.40;;;8.73;;
56297;SDS011;42208;6.376;-10.782;2022-07-12T00:24:45;22.33;;;9.13;;
56297;SDS011;42208;6.376;-10.782;2022-07-12T00:27:13;32.33;;;11.43;;
56297;SDS011;42208;6.376;-10.782;2022-07-12T00:29:41;34.03;;;9.75;;
56297;SDS011;42208;6.376;-10.782;2022-07-12T00:32:10;25.35;;;9.02;;
56297;SDS011;42208;6.376;-10.782;2022-07-12T00:34:38;23.05;;;8.85;;
56297;SDS011;42208;6.376;-10.782;2022-07-12T00:37:06;19.83;;;7.95;;
56297;SDS011;42208;6.376;-10.782;2022-07-12T00:39:34;19.60;;;7.72;;
56297;SDS011;42208;6.376;-10.782;2022-07-12T00:42:03;32.08;;;7.95;;
56297;SDS011;42208;6.376;-10.782;2022-07-12T00:44:31;23.48;;;7.45;;
56297;SDS011;42208;6.376;-10.782;2022-07-12T00:47:00;36.00;;;8.25;;
56297;SDS011;42208;6.376;-10.782;2022-07-12T00:49:29;25.42;;;7.47;;
56297;SDS011;42208;6.376;-10.782;2022-07-12T00:51:58;25.83;;;7.55;;
56297;SDS011;42208;6.376;-10.782;2022-07-12T00:54:27;28.50;;;8.00;;
56297;SDS011;42208;6.376;-10.782;2022-07-12T00:56:56;28.08;;;7.75;;
56297;SDS011;42208;6.376;-10.782;2022-07-12T00:59:24;25.27;;;7.68;;
56297;SDS011;42208;6.376;-10.782;2022-07-12T01:01:52;28.80;;;8.40;;
56297;SDS011;42208;6.376;-10.782;2022-07-12T01:04:21;36.90;;;9.43;;
56297;SDS011;42208;6.376;-10.782;2022-07-12T01:06:49;33.88;;;11.20;;
56297;SDS011;42208;6.376;-10.782;2022-07-12T01:09:18;27.23;;;9.95;;
56297;SDS011;42208;6.376;-10.782;2022-07-12T01:11:46;27.83;;;8.63;;
56297;SDS011;42208;6.376;-10.782;2022-07-12T01:14:15;26.35;;;8.82;;
56297;SDS011;42208;6.376;-10.782;2022-07-12T01:16:43;32.55;;;10.10;;
56297;SDS011;42208;6.376;-10.782;2022-07-12T01:19:12;22.13;;;8.98;;
56297;SDS011;42208;6.376;-10.782;2022-07-12T01:21:46;27.35;;;9.88;;
56297;SDS011;42208;6.376;-10.782;2022-07-12T01:24:15;31.65;;;9.60;;
56297;SDS011;42208;6.376;-10.782;2022-07-12T01:26:46;34.95;;;9.45;;
56297;SDS011;42208;6.376;-10.782;2022-07-12T01:29:14;25.23;;;9.38;;
56297;SDS011;42208;6.376;-10.782;2022-07-12T01:31:43;28.50;;;8.45;;
56297;SDS011;42208;6.376;-10.782;2022-07-12T01:34:12;26.52;;;9.40;;
56297;SDS011;42208;6.376;-10.782;2022-07-12T01:36:40;32.35;;;10.57;;
56297;SDS011;42208;6.376;-10.782;2022-07-12T01:39:09;43.90;;;20.27;;
56297;SDS011;42208;6.376;-10.782;2022-07-12T01:41:38;34.00;;;14.70;;
56297;SDS011;42208;6.376;-10.782;2022-07-12T01:44:06;44.05;;;24.95;;
56297;SDS011;42208;6.376;-10.782;2022-07-12T01:46:34;50.85;;;26.77;;
56297;SDS011;42208;6.376;-10.782;2022-07-12T01:49:02;36.78;;;15.90;;
56297;SDS011;42208;6.376;-10.782;2022-07-12T01:51:31;38.45;;;13.65;;
56297;SDS011;42208;6.376;-10.782;2022-07-12T01:54:00;35.35;;;13.40;;
56297;SDS011;42208;6.376;-10.782;2022-07-12T01:56:28;28.88;;;12.15;;
56297;SDS011;42208;6.376;-10.782;2022-07-12T01:58:56;36.28;;;11.50;;
56297;SDS011;42208;6.376;-10.782;2022-07-12T02:01:24;40.25;;;14.57;;
56297;SDS011;42208;6.376;-10.782;2022-07-12T02:03:53;37.28;;;17.45;;
56297;SDS011;42208;6.376;-10.782;2022-07-12T02:06:22;55.33;;;21.75;;
56297;SDS011;42208;6.376;-10.782;2022-07-12T02:08:52;44.30;;;19.15;;
56297;SDS011;42208;6.376;-10.782;2022-07-12T02:11:20;62.88;;;30.67;;
56297;SDS011;42208;6.376;-10.782;2022-07-12T02:13:48;49.88;;;24.05;;
56297;SDS011;42208;6.376;-10.782;2022-07-12T02:16:16;37.65;;;13.77;;
56297;SDS011;42208;6.376;-10.782;2022-07-12T02:18:44;36.28;;;12.40;;
56297;SDS011;42208;6.376;-10.782;2022-07-12T02:21:13;35.60;;;12.93;;
56297;SDS011;42208;6.376;-10.782;2022-07-12T02:23:41;35.65;;;11.85;;
56297;SDS011;42208;6.376;-10.782;2022-07-12T02:26:09;30.33;;;11.32;;
56297;SDS011;42208;6.376;-10.782;2022-07-12T02:28:38;33.72;;;13.00;;
56297;SDS011;42208;6.376;-10.782;2022-07-12T02:31:06;29.63;;;12.10;;
56297;SDS011;42208;6.376;-10.782;2022-07-12T02:33:34;34.28;;;13.50;;
56297;SDS011;42208;6.376;-10.782;2022-07-12T02:36:03;31.58;;;14.18;;
56297;SDS011;42208;6.376;-10.782;2022-07-12T02:38:31;32.30;;;13.00;;
56297;SDS011;42208;6.376;-10.782;2022-07-12T02:40:59;32.05;;;12.50;;
56297;SDS011;42208;6.376;-10.782;2022-07-12T02:43:28;35.47;;;11.65;;
56297;SDS011;42208;6.376;-10.782;2022-07-12T02:46:04;31.83;;;11.30;;
56297;SDS011;42208;6.376;-10.782;2022-07-12T02:48:35;29.65;;;11.85;;
56297;SDS011;42208;6.376;-10.782;2022-07-12T02:51:04;24.02;;;10.00;;
56297;SDS011;42208;6.376;-10.782;2022-07-12T02:53:35;26.17;;;11.07;;
56297;SDS011;42208;6.376;-10.782;2022-07-12T02:56:08;32.13;;;10.82;;
56297;SDS011;42208;6.376;-10.782;2022-07-12T02:58:36;28.65;;;10.95;;
56297;SDS011;42208;6.376;-10.782;2022-07-12T03:01:04;33.35;;;11.98;;
56297;SDS011;42208;6.376;-10.782;2022-07-12T03:03:32;37.10;;;12.32;;
56297;SDS011;42208;6.376;-10.782;2022-07-12T03:09:12;32.92;;;13.00;;
56297;SDS011;42208;6.376;-10.782;2022-07-12T03:11:40;27.10;;;11.77;;
56297;SDS011;42208;6.376;-10.782;2022-07-12T03:14:08;29.02;;;12.50;;
56297;SDS011;42208;6.376;-10.782;2022-07-12T03:16:37;26.08;;;11.75;;
56297;SDS011;42208;6.376;-10.782;2022-07-12T03:19:05;35.97;;;13.75;;
56297;SDS011;42208;6.376;-10.782;2022-07-12T03:21:33;38.10;;;13.55;;
56297;SDS011;42208;6.376;-10.782;2022-07-12T03:24:01;40.60;;;13.85;;
56297;SDS011;42208;6.376;-10.782;2022-07-12T03:26:30;32.63;;;12.10;;
56297;SDS011;42208;6.376;-10.782;2022-07-12T03:28:58;37.35;;;13.20;;
56297;SDS011;42208;6.376;-10.782;2022-07-12T03:31:26;33.65;;;11.95;;
56297;SDS011;42208;6.376;-10.782;2022-07-12T03:33:54;28.42;;;12.57;;
56297;SDS011;42208;6.376;-10.782;2022-07-12T03:36:23;32.97;;;13.27;;
56297;SDS011;42208;6.376;-10.782;2022-07-12T03:38:51;37.38;;;14.82;;
56297;SDS011;42208;6.376;-10.782;2022-07-12T03:41:19;38.08;;;14.80;;
56297;SDS011;42208;6.376;-10.782;2022-07-12T03:43:47;37.15;;;15.38;;
56297;SDS011;42208;6.376;-10.782;2022-07-12T03:46:16;29.58;;;15.25;;
56297;SDS011;42208;6.376;-10.782;2022-07-12T03:48:44;41.33;;;18.35;;
56297;SDS011;42208;6.376;-10.782;2022-07-12T03:51:12;37.88;;;17.15;;
56297;SDS011;42208;6.376;-10.782;2022-07-12T03:53:40;40.35;;;16.92;;
56297;SDS011;42208;6.376;-10.782;2022-07-12T03:56:08;41.35;;;18.38;;
56297;SDS011;42208;6.376;-10.782;2022-07-12T03:58:37;45.95;;;16.90;;
56297;SDS011;42208;6.376;-10.782;2022-07-12T04:01:05;43.75;;;18.55;;
56297;SDS011;42208;6.376;-10.782;2022-07-12T04:03:33;35.33;;;16.80;;
56297;SDS011;42208;6.376;-10.782;2022-07-12T04:06:01;45.45;;;17.92;;
56297;SDS011;42208;6.376;-10.782;2022-07-12T04:08:29;40.90;;;17.73;;
56297;SDS011;42208;6.376;-10.782;2022-07-12T04:10:58;38.63;;;17.23;;
56297;SDS011;42208;6.376;-10.782;2022-07-12T04:13:26;37.58;;;17.65;;
56297;SDS011;42208;6.376;-10.782;2022-07-12T04:15:54;41.25;;;16.65;;
56297;SDS011;42208;6.376;-10.782;2022-07-12T04:18:22;39.35;;;16.92;;
56297;SDS011;42208;6.376;-10.782;2022-07-12T04:20:56;42.75;;;17.95;;
56297;SDS011;42208;6.376;-10.782;2022-07-12T04:23:24;44.70;;;18.95;;
56297;SDS011;42208;6.376;-10.782;2022-07-12T04:25:52;48.58;;;20.05;;
56297;SDS011;42208;6.376;-10.782;2022-07-12T04:28:21;51.53;;;21.50;;
56297;SDS011;42208;6.376;-10.782;2022-07-12T04:30:49;55.38;;;21.77;;
56297;SDS011;42208;6.376;-10.782;2022-07-12T04:33:17;51.00;;;21.60;;
56297;SDS011;42208;6.376;-10.782;2022-07-12T04:35:45;47.45;;;24.77;;
56297;SDS011;42208;6.376;-10.782;2022-07-12T04:38:14;50.22;;;21.40;;
56297;SDS011;42208;6.376;-10.782;2022-07-12T04:40:42;52.92;;;21.08;;
56297;SDS011;42208;6.376;-10.782;2022-07-12T04:43:10;43.47;;;19.48;;
56297;SDS011;42208;6.376;-10.782;2022-07-12T04:45:38;47.00;;;18.40;;
56297;SDS011;42208;6.376;-10.782;2022-07-12T04:48:07;33.85;;;16.60;;
56297;SDS011;42208;6.376;-10.782;2022-07-12T04:50:35;32.80;;;15.40;;
56297;SDS011;42208;6.376;-10.782;2022-07-12T04:53:03;33.80;;;15.15;;
56297;SDS011;42208;6.376;-10.782;2022-07-12T04:55:32;29.48;;;14.40;;
56297;SDS011;42208;6.376;-10.782;2022-07-12T04:58:00;36.63;;;13.98;;
56297;SDS011;42208;6.376;-10.782;2022-07-12T05:00:28;32.58;;;14.43;;
56297;SDS011;42208;6.376;-10.782;2022-07-12T05:02:57;37.10;;;15.63;;
56297;SDS011;42208;6.376;-10.782;2022-07-12T05:05:25;35.05;;;14.13;;
56297;SDS011;42208;6.376;-10.782;2022-07-12T05:07:53;26.55;;;13.32;;
56297;SDS011;42208;6.376;-10.782;2022-07-12T05:10:21;33.03;;;12.70;;
56297;SDS011;42208;6.376;-10.782;2022-07-12T05:12:49;34.85;;;14.05;;
56297;SDS011;42208;6.376;-10.782;2022-07-12T05:15:18;34.67;;;14.38;;
56297;SDS011;42208;6.376;-10.782;2022-07-12T05:17:46;31.90;;;13.93;;
56297;SDS011;42208;6.376;-10.782;2022-07-12T05:20:15;31.65;;;12.43;;
56297;SDS011;42208;6.376;-10.782;2022-07-12T05:22:43;36.50;;;13.98;;
56297;SDS011;42208;6.376;-10.782;2022-07-12T05:25:11;29.23;;;13.65;;
56297;SDS011;42208;6.376;-10.782;2022-07-12T05:27:39;28.00;;;11.98;;
56297;SDS011;42208;6.376;-10.782;2022-07-12T05:30:08;25.75;;;11.25;;
56297;SDS011;42208;6.376;-10.782;2022-07-12T05:32:36;29.25;;;11.88;;
56297;SDS011;42208;6.376;-10.782;2022-07-12T05:35:04;45.35;;;13.90;;
56297;SDS011;42208;6.376;-10.782;2022-07-12T05:37:33;24.88;;;12.30;;
56297;SDS011;42208;6.376;-10.782;2022-07-12T05:40:01;25.20;;;12.50;;
56297;SDS011;42208;6.376;-10.782;2022-07-12T05:42:30;25.42;;;12.35;;
56297;SDS011;42208;6.376;-10.782;2022-07-12T05:44:58;23.77;;;12.15;;
56297;SDS011;42208;6.376;-10.782;2022-07-12T05:47:26;26.50;;;12.55;;
56297;SDS011;42208;6.376;-10.782;2022-07-12T05:50:02;35.78;;;12.70;;
56297;SDS011;42208;6.376;-10.782;2022-07-12T05:52:32;33.25;;;13.73;;
56297;SDS011;42208;6.376;-10.782;2022-07-12T05:55:00;24.70;;;13.23;;
56297;SDS011;42208;6.376;-10.782;2022-07-12T05:57:28;27.85;;;15.02;;
56297;SDS011;42208;6.376;-10.782;2022-07-12T05:59:56;29.95;;;14.30;;
56297;SDS011;42208;6.376;-10.782;2022-07-12T06:02:25;29.45;;;16.58;;
56297;SDS011;42208;6.376;-10.782;2022-07-12T06:04:53;30.02;;;15.85;;
56297;SDS011;42208;6.376;-10.782;2022-07-12T06:07:21;30.10;;;14.38;;
56297;SDS011;42208;6.376;-10.782;2022-07-12T06:09:49;28.17;;;13.02;;
56297;SDS011;42208;6.376;-10.782;2022-07-12T06:12:18;22.70;;;13.32;;
56297;SDS011;42208;6.376;-10.782;2022-07-12T06:14:46;25.02;;;12.68;;
56297;SDS011;42208;6.376;-10.782;2022-07-12T06:17:14;30.65;;;12.70;;
56297;SDS011;42208;6.376;-10.782;2022-07-12T06:19:42;37.20;;;19.13;;
56297;SDS011;42208;6.376;-10.782;2022-07-12T06:22:10;86.47;;;70.38;;
56297;SDS011;42208;6.376;-10.782;2022-07-12T06:24:38;43.97;;;31.25;;
56297;SDS011;42208;6.376;-10.782;2022-07-12T06:27:07;32.45;;;15.95;;
56297;SDS011;42208;6.376;-10.782;2022-07-12T06:29:35;27.13;;;12.80;;
56297;SDS011;42208;6.376;-10.782;2022-07-12T06:32:03;29.45;;;13.27;;
56297;SDS011;42208;6.376;-10.782;2022-07-12T06:34:32;32.10;;;14.25;;
56297;SDS011;42208;6.376;-10.782;2022-07-12T06:37:03;23.00;;;13.13;;
56297;SDS011;42208;6.376;-10.782;2022-07-12T06:39:31;24.75;;;13.43;;
56297;SDS011;42208;6.376;-10.782;2022-07-12T06:42:00;25.45;;;14.38;;
56297;SDS011;42208;6.376;-10.782;2022-07-12T06:44:29;34.78;;;16.88;;
56297;SDS011;42208;6.376;-10.782;2022-07-12T06:46:58;41.97;;;17.38;;
56297;SDS011;42208;6.376;-10.782;2022-07-12T06:49:27;35.47;;;16.85;;
56297;SDS011;42208;6.376;-10.782;2022-07-12T06:51:55;32.70;;;16.65;;
56297;SDS011;42208;6.376;-10.782;2022-07-12T06:54:23;33.97;;;17.50;;
56297;SDS011;42208;6.376;-10.782;2022-07-12T06:56:51;35.50;;;16.85;;
56297;SDS011;42208;6.376;-10.782;2022-07-12T06:59:19;29.77;;;14.90;;
56297;SDS011;42208;6.376;-10.782;2022-07-12T07:01:48;37.85;;;15.57;;
56297;SDS011;42208;6.376;-10.782;2022-07-12T07:04:16;27.30;;;14.55;;
56297;SDS011;42208;6.376;-10.782;2022-07-12T07:06:44;30.65;;;15.80;;
56297;SDS011;42208;6.376;-10.782;2022-07-12T07:09:12;31.45;;;15.18;;
56297;SDS011;42208;6.376;-10.782;2022-07-12T07:11:41;37.75;;;15.93;;
56297;SDS011;42208;6.376;-10.782;2022-07-12T07:14:09;36.20;;;14.68;;
56297;SDS011;42208;6.376;-10.782;2022-07-12T07:16:37;26.63;;;13.88;;
56297;SDS011;42208;6.376;-10.782;2022-07-12T07:19:06;29.23;;;14.93;;
56297;SDS011;42208;6.376;-10.782;2022-07-12T07:21:34;35.70;;;16.67;;
56297;SDS011;42208;6.376;-10.782;2022-07-12T07:24:02;28.67;;;14.95;;
56297;SDS011;42208;6.376;-10.782;2022-07-12T07:26:31;29.60;;;14.07;;
56297;SDS011;42208;6.376;-10.782;2022-07-12T07:28:59;26.83;;;14.75;;
56297;SDS011;42208;6.376;-10.782;2022-07-12T07:31:27;37.67;;;15.63;;
56297;SDS011;42208;6.376;-10.782;2022-07-12T07:33:56;33.83;;;16.00;;
56297;SDS011;42208;6.376;-10.782;2022-07-12T07:36:25;39.05;;;18.02;;
56297;SDS011;42208;6.376;-10.782;2022-07-12T07:38:53;31.63;;;17.27;;
56297;SDS011;42208;6.376;-10.782;2022-07-12T07:41:21;41.53;;;18.23;;
56297;SDS011;42208;6.376;-10.782;2022-07-12T07:43:49;31.45;;;17.98;;
56297;SDS011;42208;6.376;-10.782;2022-07-12T07:46:18;40.08;;;18.60;;
56297;SDS011;42208;6.376;-10.782;2022-07-12T07:48:46;45.28;;;18.67;;
56297;SDS011;42208;6.376;-10.782;2022-07-12T07:51:14;33.08;;;18.20;;
56297;SDS011;42208;6.376;-10.782;2022-07-12T07:53:43;36.03;;;19.73;;
56297;SDS011;42208;6.376;-10.782;2022-07-12T07:56:11;35.30;;;19.70;;
56297;SDS011;42208;6.376;-10.782;2022-07-12T07:58:39;43.58;;;23.77;;
56297;SDS011;42208;6.376;-10.782;2022-07-12T08:01:07;44.40;;;24.05;;
56297;SDS011;42208;6.376;-10.782;2022-07-12T08:03:36;54.97;;;30.02;;
56297;SDS011;42208;6.376;-10.782;2022-07-12T08:06:04;55.00;;;28.58;;
56297;SDS011;42208;6.376;-10.782;2022-07-12T08:08:32;50.70;;;26.92;;
56297;SDS011;42208;6.376;-10.782;2022-07-12T08:11:21;53.55;;;28.55;;
56297;SDS011;42208;6.376;-10.782;2022-07-12T08:13:49;52.60;;;27.67;;
56297;SDS011;42208;6.376;-10.782;2022-07-12T08:16:17;55.53;;;26.73;;
56297;SDS011;42208;6.376;-10.782;2022-07-12T08:18:45;39.60;;;22.88;;
56297;SDS011;42208;6.376;-10.782;2022-07-12T08:21:14;42.30;;;21.58;;
56297;SDS011;42208;6.376;-10.782;2022-07-12T08:23:42;39.75;;;20.10;;
56297;SDS011;42208;6.376;-10.782;2022-07-12T08:26:10;35.22;;;17.98;;
56297;SDS011;42208;6.376;-10.782;2022-07-12T08:28:38;40.55;;;19.13;;
56297;SDS011;42208;6.376;-10.782;2022-07-12T08:31:07;37.05;;;18.30;;
56297;SDS011;42208;6.376;-10.782;2022-07-12T08:35:13;31.75;;;17.73;;
56297;SDS011;42208;6.376;-10.782;2022-07-12T08:37:42;31.65;;;18.55;;
56297;SDS011;42208;6.376;-10.782;2022-07-12T08:40:10;35.80;;;19.75;;
56297;SDS011;42208;6.376;-10.782;2022-07-12T08:42:41;37.53;;;18.88;;
56297;SDS011;42208;6.376;-10.782;2022-07-12T08:45:10;32.60;;;18.52;;
56297;SDS011;42208;6.376;-10.782;2022-07-12T08:47:38;31.83;;;16.58;;
56297;SDS011;42208;6.376;-10.782;2022-07-12T08:52:46;30.90;;;16.15;;
56297;SDS011;42208;6.376;-10.782;2022-07-12T08:55:16;25.00;;;13.32;;
56297;SDS011;42208;6.376;-10.782;2022-07-12T08:57:53;28.48;;;14.38;;
56297;SDS011;42208;6.376;-10.782;2022-07-12T09:00:23;28.58;;;15.55;;
56297;SDS011;42208;6.376;-10.782;2022-07-12T09:02:53;25.05;;;13.15;;
56297;SDS011;42208;6.376;-10.782;2022-07-12T09:05:24;23.50;;;12.57;;
56297;SDS011;42208;6.376;-10.782;2022-07-12T09:10:33;16.10;;;10.05;;
56297;SDS011;42208;6.376;-10.782;2022-07-12T09:13:18;20.50;;;11.68;;
56297;SDS011;42208;6.376;-10.782;2022-07-12T09:15:46;14.38;;;10.38;;
56297;SDS011;42208;6.376;-10.782;2022-07-12T09:18:15;16.95;;;10.57;;
56297;SDS011;42208;6.376;-10.782;2022-07-12T09:20:50;14.60;;;10.77;;
56297;SDS011;42208;6.376;-10.782;2022-07-12T09:23:18;22.23;;;11.07;;
56297;SDS011;42208;6.376;-10.782;2022-07-12T09:25:48;18.80;;;11.40;;
56297;SDS011;42208;6.376;-10.782;2022-07-12T09:28:16;28.00;;;17.60;;
56297;SDS011;42208;6.376;-10.782;2022-07-12T09:30:49;27.95;;;19.08;;
56297;SDS011;42208;6.376;-10.782;2022-07-12T09:33:20;15.23;;;10.52;;
56297;SDS011;42208;6.376;-10.782;2022-07-12T09:36:01;18.85;;;10.93;;
56297;SDS011;42208;6.376;-10.782;2022-07-12T09:38:30;16.85;;;10.40;;
56297;SDS011;42208;6.376;-10.782;2022-07-12T09:40:58;18.60;;;11.00;;
56297;SDS011;42208;6.376;-10.782;2022-07-12T09:43:28;13.73;;;10.18;;
56297;SDS011;42208;6.376;-10.782;2022-07-12T09:45:56;17.38;;;11.18;;
56297;SDS011;42208;6.376;-10.782;2022-07-12T09:48:28;19.60;;;14.35;;
56297;SDS011;42208;6.376;-10.782;2022-07-12T09:50:57;19.67;;;13.43;;
56297;SDS011;42208;6.376;-10.782;2022-07-12T09:53:29;14.30;;;10.93;;
56297;SDS011;42208;6.376;-10.782;2022-07-12T09:56:18;13.52;;;9.98;;
56297;SDS011;42208;6.376;-10.782;2022-07-12T10:01:21;10.05;;;7.68;;
56297;SDS011;42208;6.376;-10.782;2022-07-12T10:03:53;12.57;;;7.25;;
56297;SDS011;42208;6.376;-10.782;2022-07-12T10:10:48;8.65;;;5.88;;
56297;SDS011;42208;6.376;-10.782;2022-07-12T10:13:18;9.38;;;6.20;;
56297;SDS011;42208;6.376;-10.782;2022-07-12T10:15:48;10.43;;;6.35;;
56297;SDS011;42208;6.376;-10.782;2022-07-12T10:18:19;10.32;;;7.45;;
56297;SDS011;42208;6.376;-10.782;2022-07-12T10:20:49;9.48;;;5.47;;
56297;SDS011;42208;6.376;-10.782;2022-07-12T10:31:36;11.88;;;7.22;;
56297;SDS011;42208;6.376;-10.782;2022-07-12T10:34:08;8.15;;;6.40;;
56297;SDS011;42208;6.376;-10.782;2022-07-12T11:07:02;9.63;;;6.68;;
56297;SDS011;42208;6.376;-10.782;2022-07-12T11:09:30;13.65;;;8.15;;
56297;SDS011;42208;6.376;-10.782;2022-07-12T11:11:59;13.55;;;9.00;;
56297;SDS011;42208;6.376;-10.782;2022-07-12T11:14:28;12.43;;;7.82;;
56297;SDS011;42208;6.376;-10.782;2022-07-12T11:16:57;12.40;;;8.27;;
56297;SDS011;42208;6.376;-10.782;2022-07-12T11:19:26;16.70;;;8.85;;
56297;SDS011;42208;6.376;-10.782;2022-07-12T11:21:57;15.95;;;8.25;;
56297;SDS011;42208;6.376;-10.782;2022-07-12T11:24:26;15.80;;;8.02;;
56297;SDS011;42208;6.376;-10.782;2022-07-12T11:26:57;18.20;;;9.15;;
56297;SDS011;42208;6.376;-10.782;2022-07-12T11:29:25;19.65;;;10.70;;
56297;SDS011;42208;6.376;-10.782;2022-07-12T11:32:00;18.10;;;9.55;;
56297;SDS011;42208;6.376;-10.782;2022-07-12T11:34:36;17.92;;;9.85;;
56297;SDS011;42208;6.376;-10.782;2022-07-12T11:37:05;22.75;;;10.40;;
56297;SDS011;42208;6.376;-10.782;2022-07-12T11:39:38;21.08;;;10.13;;
56297;SDS011;42208;6.376;-10.782;2022-07-12T11:42:07;20.58;;;9.68;;
56297;SDS011;42208;6.376;-10.782;2022-07-12T11:44:52;17.95;;;9.27;;
56297;SDS011;42208;6.376;-10.782;2022-07-12T11:47:21;17.90;;;9.77;;
56297;SDS011;42208;6.376;-10.782;2022-07-12T11:49:50;16.52;;;9.45;;
56297;SDS011;42208;6.376;-10.782;2022-07-12T11:52:21;16.60;;;8.70;;
56297;SDS011;42208;6.376;-10.782;2022-07-12T11:54:52;18.50;;;8.02;;
56297;SDS011;42208;6.376;-10.782;2022-07-12T11:57:21;19.33;;;9.75;;
56297;SDS011;42208;6.376;-10.782;2022-07-12T11:59:50;15.80;;;9.60;;
56297;SDS011;42208;6.376;-10.782;2022-07-12T12:02:18;26.60;;;11.00;;
56297;SDS011;42208;6.376;-10.782;2022-07-12T12:07:16;19.27;;;10.25;;
56297;SDS011;42208;6.376;-10.782;2022-07-12T12:12:41;26.80;;;12.05;;
56297;SDS011;42208;6.376;-10.782;2022-07-12T12:15:24;19.33;;;9.00;;
56297;SDS011;42208;6.376;-10.782;2022-07-12T12:17:54;23.02;;;11.20;;
56297;SDS011;42208;6.376;-10.782;2022-07-12T12:20:37;21.23;;;8.60;;
56297;SDS011;42208;6.376;-10.782;2022-07-12T12:23:28;27.52;;;9.25;;
56297;SDS011;42208;6.376;-10.782;2022-07-12T12:26:12;20.52;;;8.13;;
56297;SDS011;42208;6.376;-10.782;2022-07-12T12:28:48;21.00;;;8.70;;
56297;SDS011;42208;6.376;-10.782;2022-07-12T12:31:22;17.30;;;8.32;;
56297;SDS011;42208;6.376;-10.782;2022-07-12T12:33:51;20.52;;;8.48;;
56297;SDS011;42208;6.376;-10.782;2022-07-12T12:36:25;20.70;;;8.15;;
56297;SDS011;42208;6.376;-10.782;2022-07-12T12:38:59;22.65;;;8.50;;
56297;SDS011;42208;6.376;-10.782;2022-07-12T12:41:28;22.92;;;7.97;;
56297;SDS011;42208;6.376;-10.782;2022-07-12T12:44:06;23.23;;;8.75;;
56297;SDS011;42208;6.376;-10.782;2022-07-12T12:49:19;22.70;;;9.48;;
56297;SDS011;42208;6.376;-10.782;2022-07-12T12:51:54;16.88;;;8.05;;
56297;SDS011;42208;6.376;-10.782;2022-07-12T12:54:36;15.68;;;7.72;;
56297;SDS011;42208;6.376;-10.782;2022-07-12T12:57:06;15.07;;;7.40;;
56297;SDS011;42208;6.376;-10.782;2022-07-12T12:59:35;17.60;;;7.85;;
56297;SDS011;42208;6.376;-10.782;2022-07-12T13:02:04;21.55;;;9.02;;
56297;SDS011;42208;6.376;-10.782;2022-07-12T13:04:35;23.17;;;10.63;;
56297;SDS011;42208;6.376;-10.782;2022-07-12T13:07:04;23.73;;;11.27;;
56297;SDS011;42208;6.376;-10.782;2022-07-12T13:09:38;33.20;;;16.23;;
56297;SDS011;42208;6.376;-10.782;2022-07-12T13:12:06;33.47;;;17.17;;
56297;SDS011;42208;6.376;-10.782;2022-07-12T13:14:35;21.73;;;11.50;;
56297;SDS011;42208;6.376;-10.782;2022-07-12T13:17:04;20.15;;;8.88;;
56297;SDS011;42208;6.376;-10.782;2022-07-12T13:19:33;20.15;;;10.05;;
56297;SDS011;42208;6.376;-10.782;2022-07-12T13:22:01;19.00;;;10.70;;
56297;SDS011;42208;6.376;-10.782;2022-07-12T13:24:29;25.38;;;11.35;;
56297;SDS011;42208;6.376;-10.782;2022-07-12T13:26:57;18.75;;;8.85;;
56297;SDS011;42208;6.376;-10.782;2022-07-12T13:29:26;18.33;;;9.40;;
56297;SDS011;42208;6.376;-10.782;2022-07-12T13:31:54;20.10;;;10.27;;
56297;SDS011;42208;6.376;-10.782;2022-07-12T13:34:23;20.10;;;8.63;;
56297;SDS011;42208;6.376;-10.782;2022-07-12T13:36:51;22.90;;;10.57;;
56297;SDS011;42208;6.376;-10.782;2022-07-12T13:39:20;22.55;;;9.07;;
56297;SDS011;42208;6.376;-10.782;2022-07-12T13:41:48;19.13;;;10.15;;
56297;SDS011;42208;6.376;-10.782;2022-07-12T13:44:17;25.38;;;11.30;;
56297;SDS011;42208;6.376;-10.782;2022-07-12T13:46:49;27.95;;;9.77;;
56297;SDS011;42208;6.376;-10.782;2022-07-12T13:49:17;22.27;;;9.60;;
56297;SDS011;42208;6.376;-10.782;2022-07-12T13:51:45;20.05;;;8.52;;
56297;SDS011;42208;6.376;-10.782;2022-07-12T13:54:14;16.83;;;8.60;;
56297;SDS011;42208;6.376;-10.782;2022-07-12T13:56:42;20.63;;;8.13;;
56297;SDS011;42208;6.376;-10.782;2022-07-12T13:59:14;19.60;;;9.20;;
56297;SDS011;42208;6.376;-10.782;2022-07-12T14:01:42;22.77;;;9.85;;
56297;SDS011;42208;6.376;-10.782;2022-07-12T14:04:11;23.08;;;9.02;;
56297;SDS011;42208;6.376;-10.782;2022-07-12T14:06:39;22.60;;;9.15;;
56297;SDS011;42208;6.376;-10.782;2022-07-12T14:09:07;24.88;;;11.35;;
56297;SDS011;42208;6.376;-10.782;2022-07-12T14:11:35;33.55;;;22.23;;
56297;SDS011;42208;6.376;-10.782;2022-07-12T14:14:04;22.77;;;12.20;;
56297;SDS011;42208;6.376;-10.782;2022-07-12T14:16:33;26.45;;;14.77;;
56297;SDS011;42208;6.376;-10.782;2022-07-12T14:19:01;26.88;;;10.88;;
56297;SDS011;42208;6.376;-10.782;2022-07-12T14:21:30;22.77;;;10.00;;
56297;SDS011;42208;6.376;-10.782;2022-07-12T14:23:58;22.67;;;11.90;;
56297;SDS011;42208;6.376;-10.782;2022-07-12T14:26:27;33.10;;;14.30;;
56297;SDS011;42208;6.376;-10.782;2022-07-12T14:28:55;22.05;;;11.63;;
56297;SDS011;42208;6.376;-10.782;2022-07-12T14:31:23;20.40;;;7.70;;
56297;SDS011;42208;6.376;-10.782;2022-07-12T14:33:52;25.70;;;12.93;;
56297;SDS011;42208;6.376;-10.782;2022-07-12T14:36:20;22.92;;;11.88;;
56297;SDS011;42208;6.376;-10.782;2022-07-12T14:38:48;22.40;;;10.43;;
56297;SDS011;42208;6.376;-10.782;2022-07-12T14:41:19;25.45;;;10.13;;
56297;SDS011;42208;6.376;-10.782;2022-07-12T14:43:48;25.45;;;9.48;;
56297;SDS011;42208;6.376;-10.782;2022-07-12T14:46:16;21.27;;;9.07;;
56297;SDS011;42208;6.376;-10.782;2022-07-12T14:48:45;25.55;;;10.80;;
56297;SDS011;42208;6.376;-10.782;2022-07-12T14:51:13;25.83;;;11.68;;
56297;SDS011;42208;6.376;-10.782;2022-07-12T14:53:41;28.48;;;12.00;;
56297;SDS011;42208;6.376;-10.782;2022-07-12T14:56:09;21.75;;;11.18;;
56297;SDS011;42208;6.376;-10.782;2022-07-12T14:58:37;20.15;;;10.02;;
56297;SDS011;42208;6.376;-10.782;2022-07-12T15:01:06;32.50;;;11.98;;
56297;SDS011;42208;6.376;-10.782;2022-07-12T15:03:34;29.42;;;12.65;;
56297;SDS011;42208;6.376;-10.782;2022-07-12T15:06:04;37.05;;;13.05;;
56297;SDS011;42208;6.376;-10.782;2022-07-12T15:08:32;24.40;;;10.65;;
56297;SDS011;42208;6.376;-10.782;2022-07-12T15:11:01;26.48;;;10.55;;
56297;SDS011;42208;6.376;-10.782;2022-07-12T15:13:29;23.73;;;10.80;;
56297;SDS011;42208;6.376;-10.782;2022-07-12T15:15:58;27.48;;;15.40;;
56297;SDS011;42208;6.376;-10.782;2022-07-12T15:18:26;27.80;;;15.25;;
56297;SDS011;42208;6.376;-10.782;2022-07-12T15:20:55;31.73;;;13.50;;
56297;SDS011;42208;6.376;-10.782;2022-07-12T15:23:23;36.75;;;22.38;;
56297;SDS011;42208;6.376;-10.782;2022-07-12T15:25:51;33.45;;;14.60;;
56297;SDS011;42208;6.376;-10.782;2022-07-12T15:28:21;23.38;;;9.30;;